Time;durP1;ratioP1;P1;durP2;ratioP2;P2;SDS_P1;SDS_P2;PMS_P1;PMS_P2;Temp;Humidity;BMP_temperature;BMP_pressure;BME280_temperature;BME280_humidity;BME280_pressure;Samples;Min_cycle;Max_cycle;Signal;HPM_P1;HPM_P2
2023/01/06 00:02:03;;;;;;;;;;;12.60;99.90;;;;;;5047501;28;19925;-75
2023/01/06 00:04:28;;;;;;;;;;;12.70;99.90;;;;;;5040836;28;19923;-75
2023/01/06 00:06:54;;;;;;;;;;;12.70;99.90;;;;;;5047805;28;19974;-76
2023/01/06 00:09:19;;;;;;;;;;;12.70;99.90;;;;;;5037676;28;19920;-73
2023/01/06 00:11:44;;;;;;;;;;;12.70;99.90;;;;;;5047000;28;20008;-73
2023/01/06 00:14:10;;;;;;;;;;;12.70;99.90;;;;;;5040366;28;19916;-74
2023/01/06 00:16:35;;;;;;;;;;;12.70;99.90;;;;;;5042832;28;19909;-73
2023/01/06 00:19:01;;;;;;;;;;;12.60;99.90;;;;;;5039640;28;19939;-73
2023/01/06 00:21:27;;;;;;;;;;;12.50;99.90;;;;;;5044882;28;21158;-75
2023/01/06 00:23:52;;;;;;;;;;;12.50;99.90;;;;;;5043916;28;19913;-74
2023/01/06 00:26:18;;;;;;;;;;;12.40;99.90;;;;;;5042221;28;19913;-71
2023/01/06 00:28:43;;;;;;;;;;;12.30;99.90;;;;;;5035220;28;20008;-74
2023/01/06 00:31:10;;;;;;;;;;;12.30;99.90;;;;;;5041353;28;19917;-73
2023/01/06 00:33:36;;;;;;;;;;;12.30;99.90;;;;;;5044917;28;19909;-74
2023/01/06 00:36:01;;;;;;;;;;;12.30;99.90;;;;;;5047317;28;20345;-74
2023/01/06 00:38:27;;;;;;;;;;;12.30;99.90;;;;;;5039514;28;19909;-72
2023/01/06 00:40:52;;;;;;;;;;;12.10;99.90;;;;;;5047685;28;21170;-75
2023/01/06 00:43:18;;;;;;;;;;;12.10;99.90;;;;;;5045441;28;19912;-74
2023/01/06 00:45:43;;;;;;;;;;;12.10;99.90;;;;;;5036927;28;19970;-73
2023/01/06 00:48:08;;;;;;;;;;;12.10;99.90;;;;;;5031007;28;20363;-75
2023/01/06 00:50:34;;;;;;;;;;;12.00;99.90;;;;;;5038893;28;19970;-74
2023/01/06 00:52:59;;;;;;;;;;;12.00;99.90;;;;;;5033969;28;19962;-74
2023/01/06 00:55:25;;;;;;;;;;;12.00;99.90;;;;;;5041676;28;19913;-74
2023/01/06 00:57:51;;;;;;;;;;;11.90;99.90;;;;;;5046242;28;19913;-75
2023/01/06 01:00:17;;;;;;;;;;;11.90;99.90;;;;;;5042005;28;20034;-72
2023/01/06 01:02:42;;;;;;;;;;;11.80;99.90;;;;;;5033607;28;20564;-72
2023/01/06 01:05:08;;;;;;;;;;;11.80;99.90;;;;;;5040742;28;19928;-74
2023/01/06 01:07:33;;;;;;;;;;;11.70;99.90;;;;;;5046098;28;20512;-75
2023/01/06 01:09:59;;;;;;;;;;;11.70;99.90;;;;;;5035275;28;20019;-75
2023/01/06 01:12:24;;;;;;;;;;;11.60;99.90;;;;;;5038039;28;20387;-74
2023/01/06 01:14:51;;;;;;;;;;;11.70;99.90;;;;;;5037185;28;19913;-73
2023/01/06 01:17:16;;;;;;;;;;;11.60;99.90;;;;;;5035169;28;20022;-74
2023/01/06 01:19:42;;;;;;;;;;;11.60;99.90;;;;;;5036453;28;20275;-74
2023/01/06 01:22:08;;;;;;;;;;;11.60;99.90;;;;;;5035549;28;19985;-71
2023/01/06 01:24:33;;;;;;;;;;;11.60;99.90;;;;;;5041322;28;19916;-75
2023/01/06 01:26:59;;;;;;;;;;;11.60;99.90;;;;;;5044907;28;20128;-75
2023/01/06 01:29:25;;;;;;;;;;;11.60;99.90;;;;;;5039358;28;19998;-74
2023/01/06 01:31:50;;;;;;;;;;;11.50;99.90;;;;;;5036136;28;19913;-73
2023/01/06 01:34:16;;;;;;;;;;;11.60;99.90;;;;;;5043792;28;19975;-75
2023/01/06 01:36:43;;;;;;;;;;;11.50;99.90;;;;;;5036506;28;19966;-74
2023/01/06 01:39:09;;;;;;;;;;;11.50;99.90;;;;;;5035508;28;19913;-75
2023/01/06 01:41:35;;;;;;;;;;;11.60;99.90;;;;;;5039070;28;19922;-73
2023/01/06 01:44:01;;;;;;;;;;;11.50;99.90;;;;;;5037522;28;19999;-76
2023/01/06 01:46:27;;;;;;;;;;;11.50;99.90;;;;;;5036891;28;19913;-73
2023/01/06 01:48:54;;;;;;;;;;;11.50;99.90;;;;;;5036996;28;19935;-75
2023/01/06 01:51:22;;;;;;;;;;;11.50;99.90;;;;;;5037595;28;19964;-74
2023/01/06 01:53:50;;;;;;;;;;;11.50;99.90;;;;;;5038636;28;20349;-74
2023/01/06 01:56:19;;;;;;;;;;;11.40;99.90;;;;;;5046059;28;20360;-75
2023/01/06 01:58:50;;;;;;;;;;;11.40;99.90;;;;;;5036185;28;19913;-74
2023/01/06 02:01:16;;;;;;;;;;;11.40;99.90;;;;;;5042815;28;19913;-73
2023/01/06 02:03:42;;;;;;;;;;;11.40;99.90;;;;;;5039077;28;19920;-74
2023/01/06 02:06:12;;;;;;;;;;;11.40;99.90;;;;;;5044117;28;20375;-74
2023/01/06 02:08:43;;;;;;;;;;;11.40;99.90;;;;;;5043203;28;19951;-74
2023/01/06 02:11:09;;;;;;;;;;;11.40;99.90;;;;;;5062938;28;19920;-76
2023/01/06 02:13:36;;;;;;;;;;;11.40;99.90;;;;;;5048606;28;19928;-76
2023/01/06 02:16:25;;;;;;;;;;;11.40;99.90;;;;;;5052933;28;19909;-74
2023/01/06 02:18:58;;;;;;;;;;;11.40;99.90;;;;;;5049327;28;20041;-76
2023/01/06 02:21:38;;;;;;;;;;;11.40;99.90;;;;;;5051273;28;19909;-75
2023/01/06 02:24:22;;;;;;;;;;;11.40;99.90;;;;;;5030864;28;20422;-75
2023/01/06 02:27:06;;;;;;;;;;;11.40;99.90;;;;;;5044403;28;19913;-76
2023/01/06 02:30:01;;;;;;;;;;;11.40;99.90;;;;;;5051177;28;19908;-75
2023/01/06 02:32:29;;;;;;;;;;;11.40;99.90;;;;;;5033933;28;19981;-74
2023/01/06 02:35:06;;;;;;;;;;;11.40;99.90;;;;;;5031630;28;19913;-74
2023/01/06 02:37:38;;;;;;;;;;;11.30;99.90;;;;;;5037006;28;19909;-73
2023/01/06 02:40:03;;;;;;;;;;;11.30;99.90;;;;;;5043408;28;20604;-74
2023/01/06 02:42:47;;;;;;;;;;;11.30;99.90;;;;;;5039268;28;19917;-74
2023/01/06 02:45:25;;;;;;;;;;;11.30;99.90;;;;;;5045280;28;19908;-74
2023/01/06 02:48:11;;;;;;;;;;;11.40;99.90;;;;;;5036796;28;20550;-74
2023/01/06 02:50:37;;;;;;;;;;;11.30;99.90;;;;;;5040237;28;19979;-74
2023/01/06 02:53:06;;;;;;;;;;;11.30;99.90;;;;;;5038282;28;19913;-74
2023/01/06 02:55:48;;;;;;;;;;;11.40;99.90;;;;;;5042082;28;19909;-75
2023/01/06 02:58:17;;;;;;;;;;;11.40;99.90;;;;;;5041263;28;19952;-74
2023/01/06 03:00:46;;;;;;;;;;;11.30;99.90;;;;;;5038044;28;19913;-74
2023/01/06 03:03:15;;;;;;;;;;;11.30;99.90;;;;;;5030507;28;19913;-74
2023/01/06 03:05:42;;;;;;;;;;;11.30;99.90;;;;;;5036180;28;19960;-74
2023/01/06 03:08:10;;;;;;;;;;;11.30;99.90;;;;;;5036601;28;19935;-73
2023/01/06 03:10:36;;;;;;;;;;;11.30;99.90;;;;;;5040744;28;20260;-75
2023/01/06 03:13:05;;;;;;;;;;;11.30;99.90;;;;;;5035191;28;20729;-74
2023/01/06 03:15:30;;;;;;;;;;;11.30;99.90;;;;;;5044264;28;19959;-74
2023/01/06 03:17:56;;;;;;;;;;;11.40;99.90;;;;;;5037458;28;19910;-76
2023/01/06 03:20:21;;;;;;;;;;;11.40;99.90;;;;;;5037621;28;19939;-75
2023/01/06 03:22:47;;;;;;;;;;;11.40;99.90;;;;;;5038258;28;19909;-74
2023/01/06 03:25:13;;;;;;;;;;;11.40;99.90;;;;;;5043642;28;20389;-75
2023/01/06 03:27:38;;;;;;;;;;;11.40;99.90;;;;;;5026659;28;19963;-74
2023/01/06 03:30:07;;;;;;;;;;;11.50;99.90;;;;;;5033066;28;19909;-74
2023/01/06 03:32:51;;;;;;;;;;;11.50;99.90;;;;;;5043866;28;19932;-76
2023/01/06 03:35:19;;;;;;;;;;;11.40;99.90;;;;;;5033851;28;20007;-74
2023/01/06 03:37:59;;;;;;;;;;;11.40;99.90;;;;;;5041402;28;19909;-74
2023/01/06 03:40:31;;;;;;;;;;;11.50;99.90;;;;;;5035738;28;20535;-75
2023/01/06 03:43:23;;;;;;;;;;;11.50;99.90;;;;;;5041074;28;19913;-74
2023/01/06 03:46:08;;;;;;;;;;;11.50;99.90;;;;;;5016073;28;19923;-74
2023/01/06 03:48:42;;;;;;;;;;;11.50;99.90;;;;;;5040845;28;19909;-74
2023/01/06 03:51:08;;;;;;;;;;;11.50;99.90;;;;;;5034544;28;19986;-75
2023/01/06 03:53:52;;;;;;;;;;;11.50;99.90;;;;;;5036171;28;20597;-74
2023/01/06 03:56:20;;;;;;;;;;;11.40;99.90;;;;;;5029162;28;19917;-75
2023/01/06 03:58:48;;;;;;;;;;;11.40;99.90;;;;;;5035046;28;19913;-73
2023/01/06 04:01:14;;;;;;;;;;;11.40;99.90;;;;;;5040861;28;19951;-73
2023/01/06 04:03:42;;;;;;;;;;;11.40;99.90;;;;;;5035382;28;19947;-75
2023/01/06 04:06:08;;;;;;;;;;;11.40;99.90;;;;;;5038320;28;19924;-76
2023/01/06 04:08:33;;;;;;;;;;;11.50;99.90;;;;;;5040780;28;19912;-74
2023/01/06 04:10:58;;;;;;;;;;;11.50;99.90;;;;;;5037707;28;19913;-74
2023/01/06 04:13:24;;;;;;;;;;;11.40;99.90;;;;;;5034498;28;20442;-74
2023/01/06 04:15:49;;;;;;;;;;;11.40;99.90;;;;;;5032497;28;19928;-73
2023/01/06 04:18:15;;;;;;;;;;;11.50;99.90;;;;;;5038326;28;20008;-73
2023/01/06 04:20:40;;;;;;;;;;;11.40;99.90;;;;;;5044003;28;19984;-73
2023/01/06 04:23:06;;;;;;;;;;;11.50;99.90;;;;;;5045973;28;20636;-74
2023/01/06 04:25:31;;;;;;;;;;;11.40;99.90;;;;;;5035716;28;20369;-74
2023/01/06 04:27:57;;;;;;;;;;;11.40;99.90;;;;;;5037950;28;19915;-75
2023/01/06 04:30:22;;;;;;;;;;;11.40;99.90;;;;;;5038643;28;19996;-76
2023/01/06 04:32:48;;;;;;;;;;;11.40;99.90;;;;;;5040322;28;20443;-75
2023/01/06 04:35:13;;;;;;;;;;;11.40;99.90;;;;;;5048902;28;19920;-76
2023/01/06 04:37:39;;;;;;;;;;;11.30;99.90;;;;;;5051826;28;19948;-77
2023/01/06 04:40:06;;;;;;;;;;;11.30;99.90;;;;;;5044738;28;20450;-74
2023/01/06 04:43:02;;;;;;;;;;;11.30;99.90;;;;;;5051665;28;20332;-74
2023/01/06 04:45:17;;;;;;;;;;;11.40;99.90;;;;;;5039408;28;20020;-76
2023/01/06 04:47:42;;;;;;;;;;;11.30;99.90;;;;;;5052037;28;20417;-76
2023/01/06 04:50:08;;;;;;;;;;;11.30;99.90;;;;;;5050423;28;20385;-75
2023/01/06 04:52:34;;;;;;;;;;;11.40;99.90;;;;;;5040331;28;20496;-73
2023/01/06 04:54:59;;;;;;;;;;;11.30;99.90;;;;;;5040352;28;19917;-75
2023/01/06 04:57:25;;;;;;;;;;;11.30;99.90;;;;;;5052802;28;19912;-75
2023/01/06 04:59:50;;;;;;;;;;;11.30;99.90;;;;;;5052318;28;20101;-77
2023/01/06 05:02:16;;;;;;;;;;;11.30;99.90;;;;;;5048439;28;19913;-75
2023/01/06 05:04:41;;;;;;;;;;;11.30;99.90;;;;;;5041931;28;19917;-74
2023/01/06 05:07:06;;;;;;;;;;;11.30;99.90;;;;;;5050874;28;20310;-74
2023/01/06 05:09:32;;;;;;;;;;;11.30;99.90;;;;;;5046750;28;19932;-76
2023/01/06 05:11:57;;;;;;;;;;;11.40;99.90;;;;;;5048357;28;19924;-77
2023/01/06 05:14:23;;;;;;;;;;;11.30;99.90;;;;;;5043347;28;19913;-74
2023/01/06 05:16:48;;;;;;;;;;;11.30;99.90;;;;;;5051252;28;19927;-75
2023/01/06 05:19:15;;;;;;;;;;;11.40;99.90;;;;;;5045251;28;20205;-72
2023/01/06 05:21:41;;;;;;;;;;;11.40;99.90;;;;;;5041910;28;19980;-74
2023/01/06 05:24:08;;;;;;;;;;;11.30;99.90;;;;;;5050363;28;19920;-73
2023/01/06 05:26:33;;;;;;;;;;;11.30;99.90;;;;;;5045368;28;19919;-74
2023/01/06 05:28:58;;;;;;;;;;;11.30;99.90;;;;;;5054917;28;19912;-72
2023/01/06 05:31:24;;;;;;;;;;;11.30;99.90;;;;;;5055545;28;19916;-75
2023/01/06 05:33:50;;;;;;;;;;;11.30;99.90;;;;;;5048507;28;19909;-74
2023/01/06 05:36:16;;;;;;;;;;;11.30;99.90;;;;;;5049416;28;19916;-74
2023/01/06 05:38:41;;;;;;;;;;;11.30;99.90;;;;;;5037564;28;20027;-75
2023/01/06 05:41:07;;;;;;;;;;;11.30;99.90;;;;;;5042898;28;19909;-74
2023/01/06 05:43:33;;;;;;;;;;;11.30;99.90;;;;;;5036779;28;20363;-73
2023/01/06 05:46:02;;;;;;;;;;;11.30;99.90;;;;;;5034122;28;20000;-74
2023/01/06 05:48:28;;;;;;;;;;;11.30;99.90;;;;;;5032143;28;19913;-75
2023/01/06 05:51:03;;;;;;;;;;;11.30;99.90;;;;;;5038214;28;19913;-74
2023/01/06 05:53:32;;;;;;;;;;;11.40;99.90;;;;;;5040630;28;19923;-74
2023/01/06 05:55:58;;;;;;;;;;;11.40;99.90;;;;;;5047031;28;19909;-75
2023/01/06 05:58:24;;;;;;;;;;;11.40;99.90;;;;;;5044248;28;19909;-77
2023/01/06 06:00:49;;;;;;;;;;;11.30;99.90;;;;;;5048321;28;19919;-74
2023/01/06 06:03:15;;;;;;;;;;;11.40;99.90;;;;;;5047249;28;19913;-74
2023/01/06 06:05:40;;;;;;;;;;;11.40;99.90;;;;;;5044023;28;20456;-74
2023/01/06 06:08:06;;;;;;;;;;;11.30;99.90;;;;;;5046786;28;19908;-76
2023/01/06 06:10:31;;;;;;;;;;;11.40;99.90;;;;;;5048820;28;19905;-76
2023/01/06 06:12:56;;;;;;;;;;;11.40;99.90;;;;;;5071267;28;19908;-76
2023/01/06 06:15:22;;;;;;;;;;;11.40;99.90;;;;;;5065026;28;19984;-76
2023/01/06 06:17:47;;;;;;;;;;;11.40;99.90;;;;;;5065223;28;19912;-77
2023/01/06 06:20:13;;;;;;;;;;;11.30;99.90;;;;;;5072709;28;19901;-75
2023/01/06 06:22:38;;;;;;;;;;;11.30;99.90;;;;;;5071773;28;19921;-78
2023/01/06 06:25:04;;;;;;;;;;;11.40;99.90;;;;;;5068014;28;19897;-77
2023/01/06 06:27:29;;;;;;;;;;;11.40;99.90;;;;;;5071408;28;19912;-77
2023/01/06 06:29:55;;;;;;;;;;;11.40;99.90;;;;;;5068101;28;19935;-78
2023/01/06 06:32:20;;;;;;;;;;;11.50;99.90;;;;;;5070219;28;20055;-78
2023/01/06 06:34:46;;;;;;;;;;;11.50;99.90;;;;;;5069125;28;19901;-77
2023/01/06 06:37:11;;;;;;;;;;;11.60;99.90;;;;;;5068904;28;19901;-75
2023/01/06 06:39:37;;;;;;;;;;;11.60;99.90;;;;;;5071150;28;19971;-77
2023/01/06 06:42:02;;;;;;;;;;;11.60;99.90;;;;;;5068972;28;19912;-77
2023/01/06 06:44:28;;;;;;;;;;;11.70;99.90;;;;;;5066083;28;20433;-77
2023/01/06 06:46:53;;;;;;;;;;;11.80;99.90;;;;;;5067743;28;19967;-77
2023/01/06 06:49:19;;;;;;;;;;;11.80;99.90;;;;;;5059853;28;19917;-76
2023/01/06 06:51:46;;;;;;;;;;;11.90;99.90;;;;;;5053481;28;19913;-74
2023/01/06 06:54:12;;;;;;;;;;;11.90;99.90;;;;;;5048567;28;19920;-73
2023/01/06 06:56:37;;;;;;;;;;;11.90;99.90;;;;;;5060187;28;19902;-75
2023/01/06 06:59:03;;;;;;;;;;;12.00;99.90;;;;;;5052967;28;19915;-75
2023/01/06 07:01:30;;;;;;;;;;;12.00;99.90;;;;;;5064247;28;19909;-74
2023/01/06 07:03:55;;;;;;;;;;;12.10;99.90;;;;;;5057020;28;19928;-74
2023/01/06 07:06:22;;;;;;;;;;;12.10;99.90;;;;;;5060061;28;19913;-77
2023/01/06 07:08:48;;;;;;;;;;;12.20;99.90;;;;;;5050510;28;19934;-75
2023/01/06 07:11:14;;;;;;;;;;;12.30;99.90;;;;;;5056922;28;20584;-76
2023/01/06 07:13:39;;;;;;;;;;;12.40;99.90;;;;;;5060629;28;20067;-78
2023/01/06 07:16:05;;;;;;;;;;;12.40;99.90;;;;;;5053310;28;19904;-78
2023/01/06 07:18:30;;;;;;;;;;;12.50;99.90;;;;;;5066191;28;19994;-77
2023/01/06 07:20:56;;;;;;;;;;;12.60;99.90;;;;;;5061970;28;19918;-78
2023/01/06 07:23:22;;;;;;;;;;;12.70;99.90;;;;;;5065309;28;19913;-79
2023/01/06 07:25:52;;;;;;;;;;;12.80;99.90;;;;;;5063216;28;19905;-76
2023/01/06 07:28:17;;;;;;;;;;;12.80;99.90;;;;;;5064427;28;20303;-82
2023/01/06 07:30:43;;;;;;;;;;;12.90;99.90;;;;;;5045904;28;20454;-76
2023/01/06 07:33:08;;;;;;;;;;;13.00;99.90;;;;;;5045685;28;19912;-76
2023/01/06 07:35:34;;;;;;;;;;;13.10;99.90;;;;;;5041941;28;19909;-79
2023/01/06 07:38:03;;;;;;;;;;;13.00;99.90;;;;;;5039128;28;19919;-80
2023/01/06 07:40:28;;;;;;;;;;;13.00;99.90;;;;;;5040604;28;20073;-78
2023/01/06 07:42:54;;;;;;;;;;;13.00;99.90;;;;;;5046882;28;19959;-76
2023/01/06 07:45:19;;;;;;;;;;;13.00;99.90;;;;;;5050024;28;19920;-78
2023/01/06 07:47:45;;;;;;;;;;;13.00;99.90;;;;;;5052717;28;19921;-81
2023/01/06 07:50:10;;;;;;;;;;;13.00;99.90;;;;;;5056728;28;20601;-80
2023/01/06 07:52:36;;;;;;;;;;;13.10;99.90;;;;;;5055110;28;19939;-77
2023/01/06 07:55:01;;;;;;;;;;;13.10;99.90;;;;;;5044829;28;19916;-77
2023/01/06 07:57:27;;;;;;;;;;;13.10;99.90;;;;;;5051376;28;19909;-78
2023/01/06 07:59:53;;;;;;;;;;;13.20;99.90;;;;;;5056534;28;19913;-78
2023/01/06 08:02:18;;;;;;;;;;;13.20;99.90;;;;;;5059716;28;19927;-76
2023/01/06 08:04:44;;;;;;;;;;;13.30;99.90;;;;;;5034924;28;20742;-75
2023/01/06 08:07:11;;;;;;;;;;;13.30;99.90;;;;;;5039056;28;19919;-75
2023/01/06 08:09:36;;;;;;;;;;;13.30;99.90;;;;;;5043253;28;19947;-75
2023/01/06 08:12:02;;;;;;;;;;;13.30;99.90;;;;;;5041966;28;20018;-75
2023/01/06 08:14:27;;;;;;;;;;;13.20;99.90;;;;;;5049734;28;19908;-75
2023/01/06 08:16:53;;;;;;;;;;;13.20;99.90;;;;;;5034618;28;20379;-75
2023/01/06 08:19:18;;;;;;;;;;;13.20;99.90;;;;;;5038087;28;19913;-75
2023/01/06 08:21:43;;;;;;;;;;;13.20;99.90;;;;;;5041331;28;19909;-75
2023/01/06 08:24:09;;;;;;;;;;;13.10;99.90;;;;;;5042823;28;19955;-76
2023/01/06 08:26:34;;;;;;;;;;;13.10;99.90;;;;;;5045163;28;19913;-74
2023/01/06 08:29:00;;;;;;;;;;;13.00;99.90;;;;;;5039831;28;20351;-74
2023/01/06 08:31:25;;;;;;;;;;;13.00;99.90;;;;;;5047577;28;19917;-75
2023/01/06 08:33:52;;;;;;;;;;;12.90;99.90;;;;;;5045620;28;19909;-75
2023/01/06 08:36:19;;;;;;;;;;;12.80;99.90;;;;;;5041520;28;19981;-74
2023/01/06 08:38:44;;;;;;;;;;;12.80;99.90;;;;;;5043907;28;19941;-76
2023/01/06 08:41:10;;;;;;;;;;;12.60;99.90;;;;;;5043804;28;20549;-74
2023/01/06 08:43:37;;;;;;;;;;;12.60;99.90;;;;;;5047595;28;19962;-76
2023/01/06 08:46:04;;;;;;;;;;;12.50;99.90;;;;;;5044259;28;19959;-77
2023/01/06 08:48:30;;;;;;;;;;;12.50;99.90;;;;;;5037623;28;19909;-72
2023/01/06 08:51:00;;;;;;;;;;;12.40;99.90;;;;;;5057875;28;19920;-75
2023/01/06 08:53:25;;;;;;;;;;;12.30;99.90;;;;;;5049956;28;19913;-75
2023/01/06 08:55:51;;;;;;;;;;;12.30;99.90;;;;;;5046055;28;19936;-74
2023/01/06 08:58:16;;;;;;;;;;;12.30;99.90;;;;;;5047443;28;20543;-74
2023/01/06 09:00:42;;;;;;;;;;;12.20;99.90;;;;;;5039686;28;19909;-74
2023/01/06 09:03:08;;;;;;;;;;;12.10;99.90;;;;;;5038037;28;20329;-76
2023/01/06 09:05:33;;;;;;;;;;;12.10;99.90;;;;;;5047774;28;19940;-74
2023/01/06 09:07:59;;;;;;;;;;;12.10;99.90;;;;;;5044860;28;19951;-77
2023/01/06 09:10:24;;;;;;;;;;;11.90;99.90;;;;;;5041743;28;19909;-78
2023/01/06 09:12:50;;;;;;;;;;;11.90;99.90;;;;;;5035850;28;20300;-75
2023/01/06 09:15:16;;;;;;;;;;;11.90;99.90;;;;;;5047047;28;20481;-75
2023/01/06 09:17:41;;;;;;;;;;;11.80;99.90;;;;;;5035647;28;20558;-75
2023/01/06 09:20:07;;;;;;;;;;;11.70;99.90;;;;;;5047437;28;19916;-75
2023/01/06 09:22:33;;;;;;;;;;;11.60;99.90;;;;;;5040669;28;19919;-77
2023/01/06 09:24:58;;;;;;;;;;;11.50;99.90;;;;;;5039948;28;19909;-77
2023/01/06 09:27:23;;;;;;;;;;;11.50;99.90;;;;;;5041847;28;19909;-75
2023/01/06 09:29:49;;;;;;;;;;;11.40;99.90;;;;;;5044915;28;20007;-75
2023/01/06 09:32:14;;;;;;;;;;;11.30;99.90;;;;;;5046033;28;19963;-73
2023/01/06 09:34:40;;;;;;;;;;;11.10;99.90;;;;;;5041525;28;19920;-74
2023/01/06 09:37:05;;;;;;;;;;;11.00;99.90;;;;;;5042095;28;19909;-76
2023/01/06 09:39:31;;;;;;;;;;;10.90;99.90;;;;;;5047361;28;19950;-75
2023/01/06 09:42:03;;;;;;;;;;;10.90;99.90;;;;;;5052518;28;19909;-74
2023/01/06 09:44:30;;;;;;;;;;;10.90;99.90;;;;;;5041565;28;19909;-79
2023/01/06 09:46:57;;;;;;;;;;;10.90;99.90;;;;;;5037668;28;19957;-76
2023/01/06 09:49:39;;;;;;;;;;;10.80;99.90;;;;;;5035843;28;19909;-76
2023/01/06 09:52:11;;;;;;;;;;;10.90;99.90;;;;;;5040914;28;19913;-77
2023/01/06 09:54:41;;;;;;;;;;;10.80;99.90;;;;;;5036951;28;19920;-74
2023/01/06 09:57:14;;;;;;;;;;;10.80;99.90;;;;;;5040562;28;19920;-77
2023/01/06 09:59:45;;;;;;;;;;;10.90;99.90;;;;;;5040443;28;19908;-75
2023/01/06 10:02:14;;;;;;;;;;;10.80;99.90;;;;;;5037080;28;21074;-76
2023/01/06 10:04:40;;;;;;;;;;;10.90;99.90;;;;;;5038782;28;19928;-75
2023/01/06 10:07:05;;;;;;;;;;;10.90;99.90;;;;;;5046348;28;19909;-77
2023/01/06 10:09:52;;;;;;;;;;;10.90;99.90;;;;;;5038565;28;19909;-75
2023/01/06 10:12:36;;;;;;;;;;;10.90;99.90;;;;;;5044107;28;19917;-75
2023/01/06 10:15:20;;;;;;;;;;;10.90;99.90;;;;;;5032834;28;19916;-77
2023/01/06 10:18:04;;;;;;;;;;;10.90;99.90;;;;;;5033587;28;19982;-75
2023/01/06 10:20:52;;;;;;;;;;;11.00;99.90;;;;;;5039736;28;19919;-76
2023/01/06 10:23:26;;;;;;;;;;;11.00;99.90;;;;;;5042414;28;20249;-76
2023/01/06 10:25:57;;;;;;;;;;;11.10;99.90;;;;;;5042217;28;20566;-75
2023/01/06 10:28:24;;;;;;;;;;;11.00;99.90;;;;;;5046360;28;19982;-74
2023/01/06 10:30:51;;;;;;;;;;;11.00;99.90;;;;;;5046942;28;19913;-74
2023/01/06 10:33:27;;;;;;;;;;;11.00;99.90;;;;;;5034884;28;19981;-75
2023/01/06 10:35:53;;;;;;;;;;;11.00;99.90;;;;;;5044445;28;19996;-76
2023/01/06 10:38:25;;;;;;;;;;;11.00;99.90;;;;;;5048402;28;19912;-72
2023/01/06 10:40:52;;;;;;;;;;;11.00;99.90;;;;;;5045000;28;20367;-77
2023/01/06 10:43:21;;;;;;;;;;;11.00;99.90;;;;;;5045310;28;19912;-74
2023/01/06 10:45:47;;;;;;;;;;;11.00;99.90;;;;;;5045048;28;19985;-73
2023/01/06 10:48:14;;;;;;;;;;;11.00;99.90;;;;;;5048180;28;19909;-75
2023/01/06 10:50:40;;;;;;;;;;;11.00;99.90;;;;;;5047532;28;19908;-74
2023/01/06 10:53:05;;;;;;;;;;;11.00;99.90;;;;;;5045607;28;19919;-76
2023/01/06 10:55:34;;;;;;;;;;;11.10;99.90;;;;;;5048700;28;19909;-75
2023/01/06 10:58:09;;;;;;;;;;;11.00;99.90;;;;;;5044176;28;19929;-72
2023/01/06 11:00:34;;;;;;;;;;;11.00;99.90;;;;;;5042305;28;19935;-76
2023/01/06 11:03:04;;;;;;;;;;;11.00;99.90;;;;;;5037284;28;19909;-74
2023/01/06 11:05:31;;;;;;;;;;;11.00;99.90;;;;;;5040726;28;19920;-75
2023/01/06 11:08:01;;;;;;;;;;;11.00;99.90;;;;;;5034962;28;19909;-75
2023/01/06 11:10:38;;;;;;;;;;;11.00;99.90;;;;;;5046404;28;20007;-75
2023/01/06 11:13:04;;;;;;;;;;;10.90;99.90;;;;;;5035789;28;20552;-75
2023/01/06 11:15:34;;;;;;;;;;;10.90;99.90;;;;;;5038196;28;19924;-75
2023/01/06 11:18:01;;;;;;;;;;;10.90;99.90;;;;;;5043678;28;19994;-72
2023/01/06 11:20:28;;;;;;;;;;;11.00;99.90;;;;;;5042872;28;19909;-75
2023/01/06 11:22:53;;;;;;;;;;;11.00;99.90;;;;;;5039784;28;19959;-74
2023/01/06 11:25:19;;;;;;;;;;;11.10;99.90;;;;;;5040404;28;19948;-75
2023/01/06 11:27:45;;;;;;;;;;;11.00;99.90;;;;;;5039116;28;19909;-74
2023/01/06 11:30:40;;;;;;;;;;;11.00;99.90;;;;;;5042389;28;19916;-75
2023/01/06 11:33:35;;;;;;;;;;;11.00;99.90;;;;;;5019035;28;20000;-72
2023/01/06 11:36:11;;;;;;;;;;;11.10;99.90;;;;;;5018653;28;19936;-74
2023/01/06 11:38:48;;;;;;;;;;;11.10;99.90;;;;;;5043288;28;19912;-77
2023/01/06 11:41:19;;;;;;;;;;;11.40;99.90;;;;;;5046451;28;20006;-76
2023/01/06 11:43:45;;;;;;;;;;;11.60;99.90;;;;;;5032194;28;20481;-74
2023/01/06 11:46:12;;;;;;;;;;;11.80;99.90;;;;;;5034145;28;19935;-76
2023/01/06 11:48:41;;;;;;;;;;;12.00;99.90;;;;;;5035844;28;19909;-73
2023/01/06 11:51:07;;;;;;;;;;;12.20;99.90;;;;;;5033432;28;19914;-74
2023/01/06 11:53:33;;;;;;;;;;;12.50;99.90;;;;;;5044995;28;20791;-74
2023/01/06 11:56:06;;;;;;;;;;;12.40;99.90;;;;;;5044493;28;19916;-74
2023/01/06 11:58:35;;;;;;;;;;;12.50;99.90;;;;;;5053628;28;20020;-73
2023/01/06 12:01:12;;;;;;;;;;;12.60;99.90;;;;;;5050911;28;20690;-73
2023/01/06 12:03:40;;;;;;;;;;;12.70;99.90;;;;;;5045235;28;19916;-75
2023/01/06 12:06:24;;;;;;;;;;;12.90;99.90;;;;;;5043910;28;19909;-74
2023/01/06 12:08:57;;;;;;;;;;;12.90;99.90;;;;;;5045016;28;19916;-74
2023/01/06 12:11:25;;;;;;;;;;;13.00;99.90;;;;;;5041337;28;19981;-75
2023/01/06 12:13:52;;;;;;;;;;;13.10;99.90;;;;;;5039385;28;19995;-73
2023/01/06 12:16:22;;;;;;;;;;;13.20;99.90;;;;;;5041089;28;20378;-74
2023/01/06 12:18:49;;;;;;;;;;;12.80;99.90;;;;;;5046346;28;20002;-73
2023/01/06 12:21:17;;;;;;;;;;;12.50;99.90;;;;;;5042513;28;19909;-76
2023/01/06 12:23:44;;;;;;;;;;;12.70;99.90;;;;;;5044977;28;20229;-74
2023/01/06 12:26:14;;;;;;;;;;;12.80;99.90;;;;;;5044384;28;19909;-74
2023/01/06 12:28:42;;;;;;;;;;;12.80;99.90;;;;;;5041357;28;19920;-74
2023/01/06 12:31:29;;;;;;;;;;;12.70;99.90;;;;;;5047042;28;19912;-74
2023/01/06 12:34:15;;;;;;;;;;;13.00;99.90;;;;;;5047019;28;19909;-76
2023/01/06 12:36:55;;;;;;;;;;;13.20;99.90;;;;;;5039652;28;19909;-74
2023/01/06 12:39:44;;;;;;;;;;;13.30;99.90;;;;;;5037470;28;19964;-75
2023/01/06 12:42:26;;;;;;;;;;;13.00;99.90;;;;;;5047545;28;20647;-76
2023/01/06 12:44:56;;;;;;;;;;;13.10;99.90;;;;;;5041331;28;19909;-74
2023/01/06 12:47:24;;;;;;;;;;;13.40;99.90;;;;;;5041277;28;20286;-75
2023/01/06 12:49:50;;;;;;;;;;;13.50;99.90;;;;;;5037515;28;19916;-75
2023/01/06 12:52:32;;;;;;;;;;;13.40;99.90;;;;;;5043683;28;19913;-73
2023/01/06 12:54:58;;;;;;;;;;;13.30;99.90;;;;;;5039085;28;20004;-75
2023/01/06 12:57:24;;;;;;;;;;;13.20;99.90;;;;;;5045173;28;20302;-77
2023/01/06 13:00:05;;;;;;;;;;;13.30;99.90;;;;;;5040747;28;19939;-74
2023/01/06 13:02:42;;;;;;;;;;;13.30;99.90;;;;;;5035299;28;20437;-75
2023/01/06 13:05:11;;;;;;;;;;;13.20;99.90;;;;;;5043156;28;20414;-74
2023/01/06 13:07:45;;;;;;;;;;;13.30;99.90;;;;;;5043825;28;19909;-75
2023/01/06 13:10:10;;;;;;;;;;;13.30;99.90;;;;;;5057832;28;19976;-74
2023/01/06 13:12:46;;;;;;;;;;;13.20;99.90;;;;;;5047187;28;19951;-75
2023/01/06 13:15:14;;;;;;;;;;;13.00;99.90;;;;;;5051283;28;19997;-74
2023/01/06 13:17:40;;;;;;;;;;;13.10;99.90;;;;;;5063079;28;19908;-76
2023/01/06 13:20:10;;;;;;;;;;;13.20;99.90;;;;;;5058629;28;19920;-76
2023/01/06 13:22:38;;;;;;;;;;;13.30;99.90;;;;;;5057475;28;19923;-75
2023/01/06 13:25:06;;;;;;;;;;;13.40;99.90;;;;;;5046491;28;19936;-75
2023/01/06 13:27:32;;;;;;;;;;;13.20;99.90;;;;;;5060613;28;19912;-75
2023/01/06 13:30:19;;;;;;;;;;;13.10;99.90;;;;;;5060379;28;20128;-76
2023/01/06 13:32:50;;;;;;;;;;;12.70;99.90;;;;;;5063962;28;19924;-76
2023/01/06 13:35:25;;;;;;;;;;;12.40;99.90;;;;;;5050735;28;20339;-73
2023/01/06 13:38:01;;;;;;;;;;;12.20;99.90;;;;;;5038335;28;19952;-76
2023/01/06 13:40:28;;;;;;;;;;;12.10;99.90;;;;;;5047936;28;19909;-73
2023/01/06 13:43:00;;;;;;;;;;;11.90;99.90;;;;;;5044062;28;19941;-76
2023/01/06 13:45:27;;;;;;;;;;;11.80;99.90;;;;;;5037774;28;19920;-74
2023/01/06 13:47:53;;;;;;;;;;;11.80;99.90;;;;;;5044545;28;20300;-74
2023/01/06 13:50:19;;;;;;;;;;;11.70;99.90;;;;;;5047627;28;19954;-76
2023/01/06 13:52:45;;;;;;;;;;;11.80;99.90;;;;;;5037073;28;19913;-73
2023/01/06 13:55:17;;;;;;;;;;;11.80;99.90;;;;;;5039215;28;19912;-73
2023/01/06 13:57:42;;;;;;;;;;;11.80;99.90;;;;;;5047659;28;19909;-76
2023/01/06 14:00:18;;;;;;;;;;;11.80;99.90;;;;;;5044514;28;20294;-73
2023/01/06 14:02:44;;;;;;;;;;;11.80;99.90;;;;;;5042770;28;19909;-74
2023/01/06 14:05:21;;;;;;;;;;;11.80;99.90;;;;;;5045904;28;19936;-75
2023/01/06 14:07:51;;;;;;;;;;;11.80;99.90;;;;;;5033892;28;20414;-76
2023/01/06 14:10:28;;;;;;;;;;;11.90;99.90;;;;;;5036294;28;19952;-76
2023/01/06 14:12:54;;;;;;;;;;;11.90;99.90;;;;;;5030439;28;19912;-75
2023/01/06 14:15:24;;;;;;;;;;;12.00;99.90;;;;;;5036971;28;20011;-76
2023/01/06 14:17:49;;;;;;;;;;;11.90;99.90;;;;;;5039169;28;19963;-74
2023/01/06 14:20:41;;;;;;;;;;;11.90;99.90;;;;;;5048802;28;19936;-75
2023/01/06 14:23:20;;;;;;;;;;;11.90;99.90;;;;;;5029543;28;19908;-74
2023/01/06 14:25:48;;;;;;;;;;;11.90;99.90;;;;;;5039417;28;19916;-75